Time;durP1;ratioP1;P1;durP2;ratioP2;P2;SDS_P1;SDS_P2;PMS_P1;PMS_P2;Temp;Humidity;BMP_temperature;BMP_pressure;BME280_temperature;BME280_humidity;BME280_pressure;Samples;Min_cycle;Max_cycle;Signal;HPM_P1;HPM_P2
2022/04/17 00:01:46;;;;;;;9.18;3.60;;;;;;;;;;4964362;28;20097;-83
2022/04/17 00:04:14;;;;;;;6.53;3.33;;;;;;;;;;4981673;28;20039;-82
2022/04/17 00:06:41;;;;;;;8.00;3.58;;;;;;;;;;4977819;28;20079;-82
2022/04/17 00:09:08;;;;;;;6.65;3.50;;;;;;;;;;4957898;28;20071;-82
2022/04/17 00:11:34;;;;;;;6.28;3.47;;;;;;;;;;4980361;28;20814;-83
2022/04/17 00:14:01;;;;;;;6.03;3.40;;;;;;;;;;4962985;28;20055;-79
2022/04/17 00:16:27;;;;;;;10.27;3.83;;;;;;;;;;4977159;28;20078;-79
2022/04/17 00:18:53;;;;;;;6.57;3.53;;;;;;;;;;4960926;28;20044;-80
2022/04/17 00:21:22;;;;;;;5.55;3.40;;;;;;;;;;4960648;28;20055;-80
2022/04/17 00:23:49;;;;;;;6.78;3.45;;;;;;;;;;4962066;28;20039;-81
2022/04/17 00:26:15;;;;;;;6.93;3.35;;;;;;;;;;4961779;28;20090;-83
2022/04/17 00:28:41;;;;;;;5.60;3.20;;;;;;;;;;4959677;28;20565;-83
2022/04/17 00:31:08;;;;;;;6.53;3.33;;;;;;;;;;4956177;28;20063;-81
2022/04/17 00:33:35;;;;;;;7.75;3.58;;;;;;;;;;4968391;28;20075;-80
2022/04/17 00:36:01;;;;;;;6.35;3.30;;;;;;;;;;4969177;28;20062;-82
2022/04/17 00:38:28;;;;;;;6.22;3.40;;;;;;;;;;4964315;28;20066;-81
2022/04/17 00:40:54;;;;;;;7.28;3.78;;;;;;;;;;4959408;28;20044;-82
2022/04/17 00:43:22;;;;;;;7.50;3.92;;;;;;;;;;4965058;28;20091;-83
2022/04/17 00:45:48;;;;;;;6.65;3.72;;;;;;;;;;4961860;28;20044;-81
2022/04/17 00:48:15;;;;;;;7.43;3.85;;;;;;;;;;4984600;28;20035;-80
2022/04/17 00:50:41;;;;;;;10.23;4.20;;;;;;;;;;4989555;28;20055;-81
2022/04/17 00:53:11;;;;;;;7.18;3.80;;;;;;;;;;4966328;28;20086;-81
2022/04/17 00:55:38;;;;;;;6.70;3.72;;;;;;;;;;4982039;28;20051;-80
2022/04/17 00:58:05;;;;;;;8.65;4.10;;;;;;;;;;4959619;28;20038;-82
2022/04/17 01:00:33;;;;;;;7.18;4.43;;;;;;;;;;4965301;28;20091;-80
2022/04/17 01:03:00;;;;;;;7.63;4.30;;;;;;;;;;4965722;28;20071;-82
2022/04/17 01:05:27;;;;;;;7.40;4.13;;;;;;;;;;4983069;28;20051;-82
2022/04/17 01:07:53;;;;;;;9.60;4.25;;;;;;;;;;4965482;28;20066;-82
2022/04/17 01:10:19;;;;;;;8.00;4.07;;;;;;;;;;4947950;28;20158;-82
2022/04/17 01:12:46;;;;;;;8.43;4.07;;;;;;;;;;4950335;28;20044;-82
2022/04/17 01:15:12;;;;;;;7.88;3.90;;;;;;;;;;4962689;28;20110;-81
2022/04/17 01:17:39;;;;;;;6.53;3.58;;;;;;;;;;4963609;28;20055;-82
2022/04/17 01:20:06;;;;;;;8.13;3.75;;;;;;;;;;4960899;28;20059;-81
2022/04/17 01:22:32;;;;;;;7.07;3.35;;;;;;;;;;4945135;28;20056;-80
2022/04/17 01:27:55;;;;;;;8.45;3.78;;;;;;;;;;4908342;28;20076;-81
2022/04/17 01:30:21;;;;;;;6.78;3.70;;;;;;;;;;4960072;28;20084;-81
2022/04/17 01:32:47;;;;;;;6.95;3.63;;;;;;;;;;4960658;28;20059;-82
2022/04/17 01:35:14;;;;;;;7.20;3.72;;;;;;;;;;4962610;28;20051;-81
2022/04/17 01:37:40;;;;;;;7.83;4.17;;;;;;;;;;4942554;28;1067294;-81
2022/04/17 01:40:07;;;;;;;7.60;3.85;;;;;;;;;;4980231;28;20059;-80
2022/04/17 01:42:33;;;;;;;6.28;3.60;;;;;;;;;;4980923;28;20107;-81
2022/04/17 01:44:59;;;;;;;8.68;4.00;;;;;;;;;;4964156;28;20059;-82
2022/04/17 01:47:25;;;;;;;6.53;3.47;;;;;;;;;;4980731;28;20059;-81
2022/04/17 01:49:52;;;;;;;9.18;3.78;;;;;;;;;;4963805;28;20070;-80
2022/04/17 01:52:18;;;;;;;8.68;3.83;;;;;;;;;;4980805;28;20058;-80
2022/04/17 01:54:44;;;;;;;9.73;3.50;;;;;;;;;;4978915;28;20059;-82
2022/04/17 01:57:11;;;;;;;9.48;4.50;;;;;;;;;;4968992;28;20059;-82
2022/04/17 01:59:37;;;;;;;8.07;3.53;;;;;;;;;;4963433;28;20047;-81
2022/04/17 02:02:04;;;;;;;9.77;3.97;;;;;;;;;;4963491;28;20070;-80
2022/04/17 02:04:35;;;;;;;9.88;3.95;;;;;;;;;;4962463;28;20051;-80
2022/04/17 02:07:01;;;;;;;;;;;;;;;;;;4961822;28;20043;-82
2022/04/17 02:09:28;;;;;;;7.88;3.75;;;;;;;;;;4978985;28;46468;-80
2022/04/17 02:11:54;;;;;;;8.70;4.15;;;;;;;;;;4979513;28;20062;-82
2022/04/17 02:14:20;;;;;;;8.43;4.22;;;;;;;;;;4961535;28;20051;-82
2022/04/17 02:16:47;;;;;;;7.50;4.00;;;;;;;;;;4961194;28;20055;-81
2022/04/17 02:19:14;;;;;;;7.43;4.03;;;;;;;;;;4977104;28;20142;-81
2022/04/17 02:21:40;;;;;;;7.72;3.80;;;;;;;;;;4957816;28;20055;-80
2022/04/17 02:24:06;;;;;;;7.90;3.83;;;;;;;;;;4974970;28;20039;-81
2022/04/17 02:26:33;;;;;;;6.60;3.53;;;;;;;;;;4959591;28;20111;-80
2022/04/17 02:28:59;;;;;;;7.90;4.03;;;;;;;;;;4958115;28;20052;-82
2022/04/17 02:31:26;;;;;;;7.85;4.05;;;;;;;;;;4943538;28;20056;-81
2022/04/17 02:33:53;;;;;;;7.22;3.85;;;;;;;;;;4961200;28;20093;-82
2022/04/17 02:36:20;;;;;;;8.65;4.25;;;;;;;;;;4961150;28;20082;-82
2022/04/17 02:38:47;;;;;;;7.20;3.53;;;;;;;;;;4957668;28;20377;-82
2022/04/17 02:41:13;;;;;;;7.13;3.85;;;;;;;;;;4942010;28;20088;-84
2022/04/17 02:43:39;;;;;;;7.57;3.90;;;;;;;;;;4950264;28;20067;-82
2022/04/17 02:46:06;;;;;;;9.60;4.38;;;;;;;;;;4956948;28;20071;-82
2022/04/17 02:48:34;;;;;;;9.07;4.20;;;;;;;;;;4960997;28;20055;-81
2022/04/17 02:51:01;;;;;;;8.40;4.20;;;;;;;;;;4960786;28;20087;-82
2022/04/17 02:53:27;;;;;;;8.43;4.75;;;;;;;;;;4978744;28;20090;-80
2022/04/17 02:55:53;;;;;;;7.72;3.72;;;;;;;;;;4977917;28;20590;-82
2022/04/17 02:58:20;;;;;;;8.98;4.00;;;;;;;;;;4960426;28;20051;-81
2022/04/17 03:06:17;;;;;;;7.45;3.90;;;;;;;;;;4976010;28;21016;-81
2022/04/17 03:08:43;;;;;;;6.30;3.95;;;;;;;;;;4960250;28;20119;-82
2022/04/17 03:11:10;;;;;;;7.00;3.72;;;;;;;;;;4977756;28;21098;-82
2022/04/17 03:13:36;;;;;;;8.32;3.95;;;;;;;;;;4975610;28;20062;-82
2022/04/17 03:16:03;;;;;;;9.55;4.15;;;;;;;;;;4942572;28;20048;-81
2022/04/17 03:18:29;;;;;;;9.60;4.25;;;;;;;;;;4976411;28;20126;-81
2022/04/17 03:20:58;;;;;;;10.18;4.03;;;;;;;;;;4961395;28;20142;-81
2022/04/17 03:23:25;;;;;;;7.75;4.32;;;;;;;;;;4978825;28;20044;-81
2022/04/17 03:25:52;;;;;;;7.65;3.70;;;;;;;;;;4959688;28;20047;-82
2022/04/17 03:28:19;;;;;;;7.78;3.97;;;;;;;;;;4957583;28;20095;-80
2022/04/17 03:30:45;;;;;;;7.55;4.28;;;;;;;;;;4968624;28;20079;-81
2022/04/17 03:33:12;;;;;;;9.27;4.80;;;;;;;;;;4961297;28;20063;-81
2022/04/17 03:35:39;;;;;;;8.40;4.50;;;;;;;;;;4959999;28;20075;-82
2022/04/17 03:38:05;;;;;;;7.82;4.43;;;;;;;;;;4978129;28;20079;-80
2022/04/17 03:40:31;;;;;;;8.10;4.10;;;;;;;;;;4959476;28;20071;-81
2022/04/17 03:42:58;;;;;;;8.48;4.00;;;;;;;;;;4958843;28;20094;-81
2022/04/17 03:45:24;;;;;;;7.65;4.22;;;;;;;;;;4972302;28;20084;-82
2022/04/17 03:47:51;;;;;;;9.07;4.18;;;;;;;;;;4956147;28;20146;-82
2022/04/17 03:50:18;;;;;;;8.13;3.83;;;;;;;;;;4959485;28;20079;-80
2022/04/17 03:52:45;;;;;;;7.85;4.00;;;;;;;;;;4976782;28;20074;-81
2022/04/17 03:55:11;;;;;;;8.63;4.13;;;;;;;;;;4960596;28;20063;-82
2022/04/17 03:57:38;;;;;;;7.60;4.00;;;;;;;;;;4976301;28;20111;-80
2022/04/17 04:00:05;;;;;;;10.48;4.70;;;;;;;;;;4960257;28;20087;-82
2022/04/17 04:02:32;;;;;;;7.53;4.05;;;;;;;;;;4959731;28;20063;-81
2022/04/17 04:04:59;;;;;;;8.23;4.75;;;;;;;;;;4977434;28;20055;-81
2022/04/17 04:07:25;;;;;;;8.25;4.45;;;;;;;;;;4975082;28;20083;-82
2022/04/17 04:09:52;;;;;;;8.20;4.45;;;;;;;;;;4958910;28;20059;-80
2022/04/17 04:12:19;;;;;;;8.23;4.38;;;;;;;;;;4964056;28;20066;-80
2022/04/17 04:14:45;;;;;;;8.88;4.28;;;;;;;;;;4964446;28;20044;-80
2022/04/17 04:17:12;;;;;;;9.27;4.70;;;;;;;;;;4965774;28;20137;-80
2022/04/17 04:19:38;;;;;;;8.88;4.97;;;;;;;;;;4978733;28;20091;-81
2022/04/17 04:22:04;;;;;;;10.02;4.72;;;;;;;;;;4956631;28;20103;-82
2022/04/17 04:24:31;;;;;;;8.95;4.20;;;;;;;;;;4963747;28;20059;-82
2022/04/17 04:29:42;;;;;;;8.02;4.30;;;;;;;;;;4981758;28;20055;-80
2022/04/17 04:32:08;;;;;;;7.45;3.85;;;;;;;;;;4980502;28;20546;-81
2022/04/17 04:34:35;;;;;;;7.55;4.15;;;;;;;;;;4981302;28;20059;-82
2022/04/17 04:37:01;;;;;;;7.20;4.30;;;;;;;;;;4962546;28;20101;-81
2022/04/17 04:39:28;;;;;;;10.55;4.78;;;;;;;;;;4952018;28;20142;-81
2022/04/17 04:41:54;;;;;;;9.35;4.28;;;;;;;;;;4961403;28;20098;-81
2022/04/17 04:44:20;;;;;;;8.55;4.40;;;;;;;;;;4979083;28;20224;-80
2022/04/17 04:46:47;;;;;;;8.02;4.28;;;;;;;;;;4977872;28;20059;-81
2022/04/17 04:49:31;;;;;;;10.05;4.85;;;;;;;;;;4978456;28;20059;-81
2022/04/17 04:51:57;;;;;;;8.57;4.65;;;;;;;;;;4957192;28;20055;-81
2022/04/17 04:54:24;;;;;;;9.65;4.65;;;;;;;;;;4979136;28;20086;-81
2022/04/17 04:56:51;;;;;;;11.38;4.78;;;;;;;;;;4978332;28;20067;-81
2022/04/17 04:59:17;;;;;;;8.73;4.72;;;;;;;;;;4957631;28;20598;-80
2022/04/17 05:01:43;;;;;;;9.88;4.32;;;;;;;;;;4956377;28;20055;-81
2022/04/17 05:04:20;;;;;;;8.23;4.40;;;;;;;;;;4976410;28;20134;-79
2022/04/17 05:06:46;;;;;;;8.03;4.50;;;;;;;;;;4973245;28;20059;-79
2022/04/17 05:09:13;;;;;;;8.65;4.60;;;;;;;;;;4949801;28;20299;-79
2022/04/17 05:11:39;;;;;;;10.27;4.90;;;;;;;;;;4952222;28;20083;-79
2022/04/17 05:14:06;;;;;;;9.55;4.63;;;;;;;;;;4952526;28;20799;-79
2022/04/17 05:16:33;;;;;;;11.60;5.13;;;;;;;;;;4969938;28;20138;-79
2022/04/17 05:19:20;;;;;;;9.48;5.30;;;;;;;;;;4953205;28;20063;-79
2022/04/17 05:21:47;;;;;;;8.27;4.95;;;;;;;;;;4972341;28;20047;-79
2022/04/17 05:24:14;;;;;;;11.50;5.30;;;;;;;;;;4957597;28;20142;-80
2022/04/17 05:26:41;;;;;;;11.38;5.72;;;;;;;;;;4950293;28;20063;-80
2022/04/17 05:29:07;;;;;;;11.98;6.13;;;;;;;;;;4974143;28;20134;-79
2022/04/17 05:31:33;;;;;;;12.00;6.78;;;;;;;;;;4957319;28;20592;-80
2022/04/17 05:34:00;;;;;;;14.05;7.20;;;;;;;;;;4974716;28;20089;-79
2022/04/17 05:36:26;;;;;;;15.82;7.60;;;;;;;;;;4957337;28;20116;-80
2022/04/17 05:38:56;;;;;;;15.30;6.97;;;;;;;;;;4974454;28;20147;-79
2022/04/17 05:41:23;;;;;;;13.43;7.78;;;;;;;;;;4957406;28;20082;-79
2022/04/17 05:43:49;;;;;;;14.35;7.30;;;;;;;;;;4957321;28;20179;-80
2022/04/17 05:46:15;;;;;;;13.93;7.95;;;;;;;;;;4956331;28;20099;-79
2022/04/17 05:48:42;;;;;;;15.27;8.13;;;;;;;;;;4957176;28;20044;-82
2022/04/17 05:51:08;;;;;;;17.50;8.30;;;;;;;;;;4956926;28;20530;-79
2022/04/17 05:53:35;;;;;;;15.57;7.75;;;;;;;;;;4975323;28;20568;-79
2022/04/17 05:56:01;;;;;;;16.42;8.85;;;;;;;;;;4955202;28;20087;-80
2022/04/17 05:58:28;;;;;;;15.00;8.85;;;;;;;;;;4973907;28;20051;-80
2022/04/17 06:00:55;;;;;;;19.05;9.43;;;;;;;;;;4957447;28;20068;-80
2022/04/17 06:03:22;;;;;;;15.60;8.73;;;;;;;;;;4975946;28;20087;-80
2022/04/17 06:05:48;;;;;;;14.50;8.43;;;;;;;;;;4948839;28;20154;-80
2022/04/17 06:08:15;;;;;;;17.92;9.18;;;;;;;;;;4969500;28;20566;-79
2022/04/17 06:10:41;;;;;;;15.60;9.88;;;;;;;;;;4976685;28;20047;-80
2022/04/17 06:13:07;;;;;;;20.38;10.60;;;;;;;;;;4958008;28;21047;-79
2022/04/17 06:15:34;;;;;;;21.35;11.38;;;;;;;;;;4976646;28;20134;-80
2022/04/17 06:18:00;;;;;;;23.85;11.73;;;;;;;;;;4977142;28;20086;-80
2022/04/17 06:20:27;;;;;;;20.83;11.32;;;;;;;;;;4976519;28;20146;-81
2022/04/17 06:22:53;;;;;;;22.00;11.80;;;;;;;;;;4959585;28;20078;-80
2022/04/17 06:25:19;;;;;;;17.13;10.15;;;;;;;;;;4956208;28;20051;-80
2022/04/17 06:27:46;;;;;;;18.25;10.23;;;;;;;;;;4959695;28;20138;-80
2022/04/17 06:30:14;;;;;;;15.25;9.43;;;;;;;;;;4975671;28;20035;-81
2022/04/17 06:32:40;;;;;;;17.92;9.95;;;;;;;;;;4954129;28;20142;-80
2022/04/17 06:35:07;;;;;;;19.77;9.77;;;;;;;;;;4974649;28;20111;-80
2022/04/17 06:37:53;;;;;;;17.48;10.00;;;;;;;;;;4958624;28;20086;-80
2022/04/17 06:40:33;;;;;;;17.17;9.65;;;;;;;;;;4974131;28;20074;-80
2022/04/17 06:43:01;;;;;;;17.23;9.15;;;;;;;;;;4975183;28;20111;-81
2022/04/17 06:45:28;;;;;;;15.55;8.52;;;;;;;;;;4959588;28;20102;-81
2022/04/17 06:47:55;;;;;;;15.40;8.35;;;;;;;;;;4977066;28;20051;-81
2022/04/17 06:50:22;;;;;;;14.10;8.13;;;;;;;;;;4957278;28;20054;-81
2022/04/17 06:52:49;;;;;;;13.38;8.07;;;;;;;;;;4976660;28;20084;-80
2022/04/17 06:55:15;;;;;;;13.93;8.63;;;;;;;;;;4974601;28;20557;-80
2022/04/17 06:57:46;;;;;;;15.07;7.40;;;;;;;;;;4952361;28;20070;-80
2022/04/17 07:00:12;;;;;;;13.45;7.13;;;;;;;;;;4950591;28;20063;-80
2022/04/17 07:02:40;;;;;;;13.25;6.97;;;;;;;;;;4958922;28;20066;-80
2022/04/17 07:05:08;;;;;;;11.15;6.50;;;;;;;;;;4960440;28;20048;-79
2022/04/17 07:07:34;;;;;;;10.38;6.40;;;;;;;;;;4977965;28;20079;-82
2022/04/17 07:10:01;;;;;;;11.98;6.15;;;;;;;;;;4957292;28;20567;-81
2022/04/17 07:12:29;;;;;;;12.95;6.13;;;;;;;;;;4960426;28;20094;-80
2022/04/17 07:14:56;;;;;;;11.30;6.13;;;;;;;;;;4973915;28;20506;-80
2022/04/17 07:17:31;;;;;;;10.05;6.25;;;;;;;;;;4949609;28;20091;-80
2022/04/17 07:19:57;;;;;;;14.70;5.70;;;;;;;;;;4957520;28;20715;-80
2022/04/17 07:22:24;;;;;;;10.25;5.53;;;;;;;;;;4952064;28;20052;-80
2022/04/17 07:24:53;;;;;;;9.02;4.93;;;;;;;;;;4960209;28;20102;-79
2022/04/17 07:27:20;;;;;;;8.80;4.85;;;;;;;;;;4959356;28;20079;-80
2022/04/17 07:29:47;;;;;;;8.75;4.85;;;;;;;;;;4957188;28;20239;-79
2022/04/17 07:32:13;;;;;;;7.35;5.03;;;;;;;;;;4962307;28;20048;-79
2022/04/17 07:34:39;;;;;;;8.05;4.65;;;;;;;;;;4977361;28;20146;-80
2022/04/17 07:37:06;;;;;;;7.68;4.72;;;;;;;;;;4972121;28;20071;-80
2022/04/17 07:39:32;;;;;;;9.60;5.35;;;;;;;;;;4977700;28;20117;-80
2022/04/17 07:41:59;;;;;;;9.10;5.60;;;;;;;;;;4961256;28;20094;-80
2022/04/17 07:44:29;;;;;;;8.00;4.40;;;;;;;;;;4952333;28;20085;-81
2022/04/17 07:46:56;;;;;;;10.60;5.30;;;;;;;;;;4960660;28;20079;-80
2022/04/17 07:49:26;;;;;;;8.50;5.22;;;;;;;;;;4959766;28;20039;-80
2022/04/17 07:51:52;;;;;;;9.57;5.13;;;;;;;;;;4956811;28;20106;-80
2022/04/17 07:54:19;;;;;;;8.07;4.90;;;;;;;;;;4976224;28;20275;-79
2022/04/17 07:56:45;;;;;;;11.70;5.60;;;;;;;;;;4960843;28;20047;-81
2022/04/17 07:59:12;;;;;;;7.70;5.22;;;;;;;;;;4962368;28;20059;-81
2022/04/17 08:01:40;;;;;;;10.43;5.53;;;;;;;;;;4958697;28;20059;-79
2022/04/17 08:04:07;;;;;;;10.25;5.30;;;;;;;;;;4981378;28;20047;-80
2022/04/17 08:06:37;;;;;;;9.57;5.00;;;;;;;;;;4979209;28;20075;-79
2022/04/17 08:09:03;;;;;;;10.60;5.25;;;;;;;;;;4968704;28;20087;-79
2022/04/17 08:11:29;;;;;;;8.20;5.50;;;;;;;;;;4961998;28;20079;-80
2022/04/17 08:13:56;;;;;;;8.23;5.20;;;;;;;;;;4961629;28;20145;-80
2022/04/17 08:16:23;;;;;;;9.30;5.40;;;;;;;;;;4965310;28;20058;-80
2022/04/17 08:18:50;;;;;;;14.68;5.65;;;;;;;;;;4959661;28;20055;-79
2022/04/17 08:21:16;;;;;;;10.82;5.30;;;;;;;;;;4980779;28;20047;-80
2022/04/17 08:23:42;;;;;;;9.68;5.55;;;;;;;;;;4975321;28;20055;-81
2022/04/17 08:26:09;;;;;;;9.57;5.50;;;;;;;;;;4963319;28;20141;-79
2022/04/17 08:28:35;;;;;;;9.25;5.25;;;;;;;;;;4960194;28;20138;-80
2022/04/17 08:31:04;;;;;;;9.82;5.53;;;;;;;;;;4962049;28;20059;-79
2022/04/17 08:33:32;;;;;;;11.70;7.60;;;;;;;;;;4960216;28;20110;-78
2022/04/17 08:35:59;;;;;;;13.30;7.40;;;;;;;;;;4959467;28;20035;-79
2022/04/17 08:38:26;;;;;;;10.43;6.78;;;;;;;;;;4978568;28;20052;-80
2022/04/17 08:40:52;;;;;;;10.40;5.82;;;;;;;;;;4971058;28;20114;-81
2022/04/17 08:43:20;;;;;;;7.45;5.18;;;;;;;;;;4949169;28;20059;-79
2022/04/17 08:45:50;;;;;;;7.90;5.68;;;;;;;;;;4963311;28;20058;-80
2022/04/17 08:48:17;;;;;;;9.10;5.97;;;;;;;;;;4968185;28;20051;-81
2022/04/17 08:50:43;;;;;;;10.00;6.13;;;;;;;;;;4979467;28;20054;-80
2022/04/17 08:53:13;;;;;;;8.73;5.45;;;;;;;;;;4978168;28;20074;-80
2022/04/17 08:55:40;;;;;;;9.32;5.60;;;;;;;;;;4980342;28;20039;-79
2022/04/17 08:58:06;;;;;;;10.35;5.38;;;;;;;;;;4978130;28;20064;-80
2022/04/17 09:00:33;;;;;;;8.93;5.57;;;;;;;;;;4963362;28;20235;-79
2022/04/17 09:02:59;;;;;;;8.60;5.68;;;;;;;;;;4954123;28;20071;-79
2022/04/17 09:05:26;;;;;;;8.48;5.70;;;;;;;;;;4945492;28;20044;-79
2022/04/17 09:07:53;;;;;;;9.23;5.85;;;;;;;;;;4952318;28;20085;-80
2022/04/17 09:10:25;;;;;;;9.90;5.43;;;;;;;;;;4977655;28;20047;-80
2022/04/17 09:12:55;;;;;;;9.80;5.63;;;;;;;;;;4952505;28;20047;-80
2022/04/17 09:15:23;;;;;;;8.00;5.22;;;;;;;;;;4955340;28;20103;-80
2022/04/17 09:17:49;;;;;;;6.78;3.75;;;;;;;;;;4967565;28;20083;-80
2022/04/17 09:20:22;;;;;;;7.18;3.95;;;;;;;;;;4971516;28;20421;-80
2022/04/17 09:22:52;;;;;;;7.07;3.92;;;;;;;;;;4958851;28;20060;-79
2022/04/17 09:25:22;;;;;;;7.00;3.58;;;;;;;;;;4960058;28;20545;-77
2022/04/17 09:28:05;;;;;;;5.63;3.20;;;;;;;;;;4961629;28;20564;-76
2022/04/17 09:30:33;;;;;;;6.68;3.50;;;;;;;;;;4967085;28;20091;-75
2022/04/17 09:33:04;;;;;;;5.47;3.28;;;;;;;;;;4967982;28;20146;-76
2022/04/17 09:35:31;;;;;;;6.43;3.40;;;;;;;;;;4968766;28;20075;-76
2022/04/17 09:37:59;;;;;;;7.30;3.42;;;;;;;;;;4969768;28;20050;-76
2022/04/17 09:40:31;;;;;;;9.40;3.70;;;;;;;;;;4969738;28;20062;-76
2022/04/17 09:43:07;;;;;;;5.72;3.58;;;;;;;;;;4950302;28;20062;-75
2022/04/17 09:45:33;;;;;;;5.35;3.58;;;;;;;;;;4969175;28;20163;-76
2022/04/17 09:48:00;;;;;;;6.43;3.60;;;;;;;;;;4969829;28;20059;-76
2022/04/17 09:50:30;;;;;;;6.20;3.70;;;;;;;;;;4963622;28;20055;-77
2022/04/17 09:52:58;;;;;;;6.15;3.63;;;;;;;;;;4970462;28;20146;-77
2022/04/17 09:55:28;;;;;;;5.53;3.67;;;;;;;;;;4943467;28;20160;-78
2022/04/17 09:57:58;;;;;;;6.80;3.83;;;;;;;;;;4964402;28;20083;-78
2022/04/17 10:00:24;;;;;;;6.20;3.67;;;;;;;;;;4966876;28;20438;-77
2022/04/17 10:02:51;;;;;;;6.57;3.92;;;;;;;;;;4947653;28;20779;-77
2022/04/17 10:05:18;;;;;;;7.63;4.18;;;;;;;;;;4943643;28;20087;-77
2022/04/17 10:07:45;;;;;;;6.20;3.60;;;;;;;;;;4952015;28;20627;-78
2022/04/17 10:10:12;;;;;;;7.50;4.22;;;;;;;;;;4965795;28;20538;-76
2022/04/17 10:12:40;;;;;;;6.93;4.03;;;;;;;;;;4947766;28;20541;-77
2022/04/17 10:15:07;;;;;;;6.68;4.38;;;;;;;;;;4961555;28;20170;-76
2022/04/17 10:17:34;;;;;;;5.63;3.65;;;;;;;;;;4965204;28;20087;-76
2022/04/17 10:20:03;;;;;;;11.13;4.20;;;;;;;;;;4950618;28;20150;-77
2022/04/17 10:22:33;;;;;;;6.28;3.78;;;;;;;;;;4967108;28;20139;-79
2022/04/17 10:25:02;;;;;;;6.93;3.83;;;;;;;;;;4951016;28;20059;-77
2022/04/17 10:27:30;;;;;;;7.32;3.58;;;;;;;;;;4965923;28;20143;-76
2022/04/17 10:30:00;;;;;;;7.88;4.07;;;;;;;;;;4966665;28;20142;-76
2022/04/17 10:32:27;;;;;;;;;;;;;;;;;;4965924;28;20146;-77
2022/04/17 10:35:12;;;;;;;7.00;3.67;;;;;;;;;;4939122;28;46889;-76
2022/04/17 10:37:51;;;;;;;5.68;3.83;;;;;;;;;;4959866;28;20146;-77
2022/04/17 10:40:18;;;;;;;8.05;3.70;;;;;;;;;;4965073;28;20109;-76
2022/04/17 10:42:55;;;;;;;6.38;3.55;;;;;;;;;;4948803;28;20134;-77
2022/04/17 10:45:22;;;;;;;6.85;3.80;;;;;;;;;;4961899;28;20739;-77
2022/04/17 10:48:02;;;;;;;5.68;3.70;;;;;;;;;;4964870;28;20126;-76
2022/04/17 10:50:44;;;;;;;6.53;3.40;;;;;;;;;;4961240;28;20075;-77
2022/04/17 10:53:31;;;;;;;5.90;3.42;;;;;;;;;;4966705;28;20086;-76
2022/04/17 10:56:04;;;;;;;5.90;3.67;;;;;;;;;;4965171;28;20075;-76
2022/04/17 10:58:35;;;;;;;5.72;3.90;;;;;;;;;;4962213;28;20087;-76
2022/04/17 11:01:01;;;;;;;;;;;;;;;;;;4966474;28;20055;-76
2022/04/17 11:03:27;;;;;;;7.13;3.90;;;;;;;;;;4964590;28;46975;-76
2022/04/17 11:06:12;;;;;;;6.90;4.20;;;;;;;;;;4967194;28;20094;-77
2022/04/17 11:08:45;;;;;;;7.85;3.80;;;;;;;;;;4966935;28;20062;-76
2022/04/17 11:11:11;;;;;;;7.30;4.22;;;;;;;;;;4966618;28;20592;-76
2022/04/17 11:13:57;;;;;;;6.13;4.10;;;;;;;;;;4961202;28;20849;-76
2022/04/17 11:16:25;;;;;;;11.57;4.28;;;;;;;;;;4950557;28;20151;-77
2022/04/17 11:18:52;;;;;;;7.82;4.05;;;;;;;;;;4967703;28;20059;-77
2022/04/17 11:21:22;;;;;;;6.22;3.90;;;;;;;;;;4968039;28;20142;-76
2022/04/17 11:23:49;;;;;;;6.57;4.15;;;;;;;;;;4966917;28;20094;-76
2022/04/17 11:26:15;;;;;;;6.53;3.85;;;;;;;;;;4966911;28;20146;-76
2022/04/17 11:28:42;;;;;;;6.32;3.05;;;;;;;;;;4941678;28;20134;-77
2022/04/17 11:31:08;;;;;;;7.22;3.72;;;;;;;;;;4962052;28;20185;-76
2022/04/17 11:33:34;;;;;;;7.70;3.60;;;;;;;;;;4967085;28;20055;-76
2022/04/17 11:36:02;;;;;;;6.10;3.00;;;;;;;;;;4963915;28;20112;-77
2022/04/17 11:38:28;;;;;;;5.85;3.45;;;;;;;;;;4967479;28;20075;-77
2022/04/17 11:40:56;;;;;;;6.10;3.42;;;;;;;;;;4967487;28;20074;-76
2022/04/17 11:43:22;;;;;;;5.00;3.20;;;;;;;;;;4949461;28;20609;-76
2022/04/17 11:45:49;;;;;;;8.85;3.22;;;;;;;;;;4949608;28;20146;-76
2022/04/17 11:48:16;;;;;;;5.28;2.97;;;;;;;;;;4967304;28;20085;-76
2022/04/17 11:50:43;;;;;;;5.93;3.40;;;;;;;;;;4965202;28;20519;-76
2022/04/17 11:53:10;;;;;;;6.10;3.67;;;;;;;;;;4967181;28;20111;-77
2022/04/17 11:55:39;;;;;;;6.65;3.38;;;;;;;;;;4966776;28;20079;-76
2022/04/17 11:58:08;;;;;;;6.53;3.55;;;;;;;;;;4949709;28;20138;-76
2022/04/17 12:00:39;;;;;;;5.20;3.30;;;;;;;;;;4966585;28;20157;-76
2022/04/17 12:03:05;;;;;;;5.53;3.22;;;;;;;;;;4965987;28;20134;-76
2022/04/17 12:05:33;;;;;;;5.85;3.70;;;;;;;;;;4963787;28;20174;-76
2022/04/17 12:08:09;;;;;;;6.20;3.10;;;;;;;;;;4967296;28;20118;-76
2022/04/17 12:10:40;;;;;;;6.28;3.92;;;;;;;;;;4966687;28;20103;-76
2022/04/17 12:13:10;;;;;;;5.15;3.50;;;;;;;;;;4947914;28;20134;-76
2022/04/17 12:15:37;;;;;;;6.07;3.03;;;;;;;;;;4952237;28;20103;-76
2022/04/17 12:18:03;;;;;;;7.20;3.72;;;;;;;;;;4966485;28;20100;-76
2022/04/17 12:20:30;;;;;;;5.30;3.40;;;;;;;;;;4966800;28;20087;-76
2022/04/17 12:22:56;;;;;;;7.70;3.45;;;;;;;;;;4967516;28;20063;-76
2022/04/17 12:25:23;;;;;;;6.15;3.72;;;;;;;;;;4947070;28;20142;-76
2022/04/17 12:27:51;;;;;;;6.25;3.65;;;;;;;;;;4962783;28;20081;-77
2022/04/17 12:30:18;;;;;;;5.97;3.63;;;;;;;;;;4965002;28;20082;-76
2022/04/17 12:32:46;;;;;;;5.80;3.50;;;;;;;;;;4964324;28;20091;-77
2022/04/17 12:35:19;;;;;;;6.00;3.60;;;;;;;;;;4965714;28;20135;-76
2022/04/17 12:37:46;;;;;;;6.20;3.03;;;;;;;;;;4966665;28;20537;-76
2022/04/17 12:40:18;;;;;;;5.78;3.40;;;;;;;;;;4964150;28;20577;-76
2022/04/17 12:42:45;;;;;;;8.20;3.65;;;;;;;;;;4969090;28;20134;-76
2022/04/17 12:45:22;;;;;;;6.38;3.80;;;;;;;;;;4965711;28;22253;-76
2022/04/17 12:48:04;;;;;;;5.47;3.40;;;;;;;;;;4969255;28;20086;-77
2022/04/17 12:50:30;;;;;;;5.65;3.25;;;;;;;;;;4967995;28;20795;-77
2022/04/17 12:52:57;;;;;;;5.55;3.30;;;;;;;;;;4967685;28;20142;-76
2022/04/17 12:55:31;;;;;;;6.60;3.35;;;;;;;;;;4968556;28;20083;-76
2022/04/17 12:57:57;;;;;;;4.80;3.05;;;;;;;;;;4969404;28;20102;-76
2022/04/17 13:00:27;;;;;;;6.07;3.60;;;;;;;;;;4966022;28;20547;-76
2022/04/17 13:03:10;;;;;;;6.53;3.28;;;;;;;;;;4969269;28;20059;-76
2022/04/17 13:05:37;;;;;;;6.40;3.80;;;;;;;;;;4969291;28;20056;-76
2022/04/17 13:08:04;;;;;;;5.55;3.72;;;;;;;;;;4968891;28;20141;-76
2022/04/17 13:10:31;;;;;;;8.00;3.67;;;;;;;;;;4968340;28;20523;-76
2022/04/17 13:12:57;;;;;;;7.38;4.10;;;;;;;;;;4969257;28;20514;-76
2022/04/17 13:15:34;;;;;;;5.80;3.80;;;;;;;;;;4957609;28;20059;-77
2022/04/17 13:18:01;;;;;;;6.68;4.20;;;;;;;;;;4962724;28;20091;-76
2022/04/17 13:20:28;;;;;;;5.82;3.60;;;;;;;;;;4965640;28;20135;-76
2022/04/17 13:22:55;;;;;;;8.00;4.32;;;;;;;;;;4966113;28;20087;-76
2022/04/17 13:25:22;;;;;;;7.68;4.40;;;;;;;;;;4948805;28;20550;-79
2022/04/17 13:27:49;;;;;;;6.38;4.20;;;;;;;;;;4961843;28;20101;-78
2022/04/17 13:30:17;;;;;;;8.45;4.05;;;;;;;;;;4973238;28;20039;-79
2022/04/17 13:32:43;;;;;;;6.65;4.38;;;;;;;;;;4958417;28;20102;-77
2022/04/17 13:35:10;;;;;;;7.05;4.00;;;;;;;;;;4956390;28;20051;-77
2022/04/17 13:40:22;;;;;;;9.07;4.03;;;;;;;;;;4964561;28;20051;-76
2022/04/17 13:42:49;;;;;;;6.13;4.10;;;;;;;;;;4959099;28;20873;-77
2022/04/17 13:45:15;;;;;;;7.82;3.97;;;;;;;;;;4962790;28;20107;-76
2022/04/17 13:47:41;;;;;;;6.97;4.10;;;;;;;;;;4978194;28;20093;-77
2022/04/17 13:50:09;;;;;;;6.28;4.00;;;;;;;;;;4956883;28;20070;-76
2022/04/17 13:52:40;;;;;;;5.97;3.58;;;;;;;;;;4977322;28;20055;-77
2022/04/17 13:55:06;;;;;;;7.35;3.70;;;;;;;;;;4954954;28;20150;-76
2022/04/17 13:57:33;;;;;;;7.32;3.60;;;;;;;;;;4949540;28;20059;-76
2022/04/17 13:59:59;;;;;;;6.15;3.88;;;;;;;;;;4973210;28;20051;-76
2022/04/17 14:02:25;;;;;;;6.70;3.70;;;;;;;;;;4955737;28;20114;-76
2022/04/17 14:04:52;;;;;;;7.03;3.85;;;;;;;;;;4957281;28;20039;-77
2022/04/17 14:07:18;;;;;;;6.78;3.60;;;;;;;;;;4954164;28;20099;-76
2022/04/17 14:09:45;;;;;;;6.65;3.60;;;;;;;;;;4952295;28;20157;-77
2022/04/17 14:12:12;;;;;;;8.18;3.92;;;;;;;;;;4953540;28;20051;-76
2022/04/17 14:14:38;;;;;;;7.20;3.90;;;;;;;;;;4963803;28;20110;-76
2022/04/17 14:17:05;;;;;;;7.57;4.30;;;;;;;;;;4959243;28;20063;-76
2022/04/17 14:19:31;;;;;;;6.10;3.70;;;;;;;;;;4951608;28;20059;-77
2022/04/17 14:21:58;;;;;;;7.55;3.33;;;;;;;;;;4956257;28;20082;-77
2022/04/17 14:24:24;;;;;;;8.57;4.40;;;;;;;;;;4960052;28;20115;-77
2022/04/17 14:26:50;;;;;;;7.25;5.00;;;;;;;;;;4964823;28;20107;-77
2022/04/17 14:29:17;;;;;;;6.38;4.00;;;;;;;;;;4974456;28;20047;-77
2022/04/17 14:31:43;;;;;;;5.60;3.85;;;;;;;;;;4976828;28;20080;-77
2022/04/17 14:34:10;;;;;;;7.95;3.80;;;;;;;;;;4954971;28;20890;-77
2022/04/17 14:36:36;;;;;;;6.15;3.53;;;;;;;;;;4946760;28;20121;-77
2022/04/17 14:39:03;;;;;;;5.88;3.58;;;;;;;;;;4966704;28;20055;-76
2022/04/17 14:41:29;;;;;;;5.90;3.30;;;;;;;;;;4966564;28;20142;-78
2022/04/17 14:43:56;;;;;;;9.27;5.72;;;;;;;;;;4959350;28;20055;-77
2022/04/17 14:46:22;;;;;;;6.07;3.85;;;;;;;;;;4965932;28;20138;-77
2022/04/17 14:48:49;;;;;;;6.35;3.67;;;;;;;;;;4961940;28;20070;-78
2022/04/17 14:51:16;;;;;;;4.95;3.33;;;;;;;;;;4951390;28;20039;-77
2022/04/17 14:53:46;;;;;;;5.63;3.15;;;;;;;;;;4954534;28;20125;-77
2022/04/17 14:56:12;;;;;;;6.03;4.18;;;;;;;;;;4957482;28;20515;-77
2022/04/17 14:58:39;;;;;;;7.45;3.58;;;;;;;;;;4979616;28;20051;-77